createdAt,value
2019-03-08T00:00:51.101Z,995.72
2019-03-08T00:01:51.128Z,995.75
2019-03-08T00:02:51.098Z,995.74
2019-03-08T00:03:51.204Z,995.72
2019-03-08T00:04:51.117Z,995.76
2019-03-08T00:05:51.360Z,995.69
2019-03-08T00:06:51.119Z,995.75
2019-03-08T00:07:51.128Z,995.67
2019-03-08T00:08:51.182Z,995.73
2019-03-08T00:09:51.143Z,995.74
2019-03-08T00:10:51.152Z,995.68
2019-03-08T00:11:51.205Z,995.68
2019-03-08T00:12:51.162Z,995.62
2019-03-08T00:13:52.085Z,995.62
2019-03-08T00:14:51.164Z,995.64
2019-03-08T00:15:51.225Z,995.61
2019-03-08T00:16:51.177Z,995.57
2019-03-08T00:17:51.251Z,995.64
2019-03-08T00:18:51.190Z,995.60
2019-03-08T00:19:51.202Z,995.58
2019-03-08T00:20:51.189Z,995.54
2019-03-08T00:21:51.209Z,995.53
2019-03-08T00:22:51.249Z,995.46
2019-03-08T00:23:51.361Z,995.54
2019-03-08T00:24:51.236Z,995.51
2019-03-08T00:25:51.216Z,995.53
2019-03-08T00:26:51.276Z,995.46
2019-03-08T00:27:51.267Z,995.44
2019-03-08T00:28:51.224Z,995.47
2019-03-08T00:29:51.229Z,995.44
2019-03-08T00:30:51.238Z,995.48
2019-03-08T00:31:51.238Z,995.46
2019-03-08T00:32:51.271Z,995.50
2019-03-08T00:33:51.257Z,995.41
2019-03-08T00:34:51.282Z,995.42
2019-03-08T00:35:51.269Z,995.44
2019-03-08T00:36:51.263Z,995.45
2019-03-08T00:37:51.288Z,995.41
2019-03-08T00:38:51.288Z,995.44
2019-03-08T00:39:51.289Z,995.47
2019-03-08T00:40:51.343Z,995.46
2019-03-08T00:41:51.301Z,995.46
2019-03-08T00:42:51.302Z,995.46
2019-03-08T00:43:51.318Z,995.47
2019-03-08T00:44:51.319Z,995.49
2019-03-08T00:45:51.331Z,995.47
2019-03-08T00:46:51.333Z,995.47
2019-03-08T00:47:51.344Z,995.43
2019-03-08T00:48:51.368Z,995.48
2019-03-08T00:49:51.339Z,995.50
2019-03-08T00:50:51.344Z,995.48
2019-03-08T00:51:51.326Z,995.55
2019-03-08T00:52:51.340Z,995.52
2019-03-08T00:53:51.372Z,995.54
2019-03-08T00:54:51.368Z,995.51
2019-03-08T00:55:51.369Z,995.54
2019-03-08T00:56:51.378Z,995.45
2019-03-08T00:57:51.380Z,995.48
2019-03-08T00:58:51.460Z,995.50
2019-03-08T00:59:51.393Z,995.45
2019-03-08T01:00:51.373Z,995.46
2019-03-08T01:01:51.402Z,995.47
2019-03-08T01:02:51.387Z,995.46
2019-03-08T01:03:51.399Z,995.43
2019-03-08T01:04:51.451Z,995.45
2019-03-08T01:05:51.423Z,995.44
2019-03-08T01:06:51.412Z,995.47
2019-03-08T01:07:52.079Z,995.41
2019-03-08T01:08:51.436Z,995.44
2019-03-08T01:09:51.486Z,995.38
2019-03-08T01:10:51.441Z,995.41
2019-03-08T01:11:51.455Z,995.38
2019-03-08T01:12:51.456Z,995.33
2019-03-08T01:13:51.449Z,995.28
2019-03-08T01:14:51.457Z,995.34
2019-03-08T01:15:51.486Z,995.35
2019-03-08T01:16:51.458Z,995.27
2019-03-08T01:17:51.472Z,995.30
2019-03-08T01:18:51.497Z,995.30
2019-03-08T01:19:51.486Z,995.26
2019-03-08T01:20:51.480Z,995.22
2019-03-08T01:21:51.520Z,995.20
2019-03-08T01:22:51.485Z,995.20
2019-03-08T01:23:51.488Z,995.20
2019-03-08T01:24:51.505Z,995.24
2019-03-08T01:25:51.503Z,995.15
2019-03-08T01:26:51.556Z,995.16
2019-03-08T01:27:51.509Z,995.20
2019-03-08T01:28:51.548Z,995.14
2019-03-08T01:29:51.523Z,995.19
2019-03-08T01:30:51.537Z,995.21
2019-03-08T01:31:53.369Z,995.15
2019-03-08T01:32:51.579Z,995.20
2019-03-08T01:33:51.561Z,995.21
2019-03-08T01:34:51.533Z,995.10
2019-03-08T01:35:51.554Z,995.09
2019-03-08T01:36:51.565Z,995.08
2019-03-08T01:37:51.560Z,995.09
2019-03-08T01:38:51.579Z,995.09
2019-03-08T01:39:51.572Z,995.10
2019-03-08T01:40:51.584Z,995.04
2019-03-08T01:41:51.571Z,995.07
2019-03-08T01:42:51.581Z,995.04
2019-03-08T01:43:51.691Z,995.07
2019-03-08T01:44:51.591Z,995.06
2019-03-08T01:45:51.590Z,994.95
2019-03-08T01:46:51.619Z,995.02
2019-03-08T01:47:51.630Z,994.94
2019-03-08T01:48:51.688Z,994.95
2019-03-08T01:49:51.624Z,994.95
2019-03-08T01:50:51.612Z,994.99
2019-03-08T01:51:51.638Z,994.90
2019-03-08T01:52:51.627Z,994.86
2019-03-08T01:53:51.621Z,994.86
2019-03-08T01:54:51.967Z,994.82
2019-03-08T01:55:51.661Z,994.88
2019-03-08T01:56:51.655Z,994.91
2019-03-08T01:57:51.662Z,994.89
2019-03-08T01:58:51.693Z,994.89
2019-03-08T01:59:51.654Z,994.91
2019-03-08T02:00:51.701Z,994.95
2019-03-08T02:01:51.667Z,994.89
2019-03-08T02:02:51.678Z,994.94
2019-03-08T02:03:51.682Z,994.97
2019-03-08T02:04:51.686Z,994.86
2019-03-08T02:05:51.738Z,994.84
2019-03-08T02:06:51.739Z,994.88
2019-03-08T02:07:51.685Z,994.82
2019-03-08T02:08:51.698Z,994.85
2019-03-08T02:09:51.700Z,994.87
2019-03-08T02:10:51.716Z,994.82
2019-03-08T02:11:51.740Z,994.87
2019-03-08T02:12:51.776Z,994.78
2019-03-08T02:13:51.749Z,994.80
2019-03-08T02:14:51.736Z,994.82
2019-03-08T02:15:51.736Z,994.74
2019-03-08T02:16:51.743Z,994.76
2019-03-08T02:17:51.756Z,994.78
2019-03-08T02:18:51.766Z,994.73
2019-03-08T02:19:51.764Z,994.74
2019-03-08T02:20:52.396Z,994.70
2019-03-08T02:21:51.802Z,994.68
2019-03-08T02:22:51.786Z,994.75
2019-03-08T02:23:51.774Z,994.66
2019-03-08T02:24:51.774Z,994.64
2019-03-08T02:25:51.789Z,994.57
2019-03-08T02:26:51.817Z,994.56
2019-03-08T02:27:51.835Z,994.54
2019-03-08T02:28:51.791Z,994.59
2019-03-08T02:29:51.802Z,994.56
2019-03-08T02:30:51.837Z,994.54
2019-03-08T02:31:51.822Z,994.48
2019-03-08T02:32:51.804Z,994.52
2019-03-08T02:33:51.856Z,994.52
2019-03-08T02:34:51.857Z,994.54
2019-03-08T02:35:51.834Z,994.49
2019-03-08T02:36:51.826Z,994.54
2019-03-08T02:37:51.856Z,994.53
2019-03-08T02:38:51.869Z,994.46
2019-03-08T02:39:51.847Z,994.49
2019-03-08T02:40:51.864Z,994.50
2019-03-08T02:41:51.885Z,994.51
2019-03-08T02:42:51.882Z,994.52
2019-03-08T02:43:51.859Z,994.52
2019-03-08T02:44:51.912Z,994.54
2019-03-08T02:45:51.892Z,994.58
2019-03-08T02:46:51.881Z,994.50
2019-03-08T02:47:51.898Z,994.49
2019-03-08T02:48:51.879Z,994.54
2019-03-08T02:49:51.913Z,994.44
2019-03-08T02:50:51.897Z,994.55
2019-03-08T02:51:51.912Z,994.57
2019-03-08T02:52:51.909Z,994.48
2019-03-08T02:53:51.908Z,994.50
2019-03-08T02:54:51.904Z,994.56
2019-03-08T02:55:51.972Z,994.46
2019-03-08T02:56:51.921Z,994.55
2019-03-08T02:57:51.925Z,994.49
2019-03-08T02:58:51.957Z,994.49
2019-03-08T02:59:51.952Z,994.47
2019-03-08T03:00:51.975Z,994.47
2019-03-08T03:01:51.943Z,994.43
2019-03-08T03:02:52.003Z,994.45
2019-03-08T03:03:51.955Z,994.45
2019-03-08T03:04:51.951Z,994.47
2019-03-08T03:05:51.989Z,994.53
2019-03-08T03:06:51.963Z,994.43
2019-03-08T03:07:51.987Z,994.36
2019-03-08T03:08:51.985Z,994.48
2019-03-08T03:09:52.037Z,994.44
2019-03-08T03:10:51.977Z,994.45
2019-03-08T03:11:52.008Z,994.51
2019-03-08T03:12:52.020Z,994.37
2019-03-08T03:13:52.026Z,994.41
2019-03-08T03:14:52.054Z,994.48
2019-03-08T03:15:52.032Z,994.40
2019-03-08T03:16:52.025Z,994.42
2019-03-08T03:17:52.157Z,994.37
2019-03-08T03:18:52.030Z,994.43
2019-03-08T03:19:52.038Z,994.40
2019-03-08T03:20:52.046Z,994.40
2019-03-08T03:21:52.033Z,994.39
2019-03-08T03:22:52.062Z,994.44
2019-03-08T03:23:52.042Z,994.33
2019-03-08T03:24:52.054Z,994.40
2019-03-08T03:25:52.105Z,994.35
2019-03-08T03:26:52.150Z,994.36
2019-03-08T03:27:52.075Z,994.36
2019-03-08T03:28:52.081Z,994.33
2019-03-08T03:29:52.070Z,994.35
2019-03-08T03:30:52.149Z,994.35
2019-03-08T03:31:52.080Z,994.33
2019-03-08T03:32:52.078Z,994.34
2019-03-08T03:33:52.162Z,994.39
2019-03-08T03:34:52.091Z,994.32
2019-03-08T03:35:52.098Z,994.17
2019-03-08T03:36:52.147Z,994.31
2019-03-08T03:37:52.113Z,994.32
2019-03-08T03:38:52.151Z,994.26
2019-03-08T03:39:52.109Z,994.24
2019-03-08T03:40:52.121Z,994.30
2019-03-08T03:41:52.123Z,994.27
2019-03-08T03:42:52.176Z,994.33
2019-03-08T03:43:52.142Z,994.23
2019-03-08T03:44:52.183Z,994.20
2019-03-08T03:45:52.155Z,994.23
2019-03-08T03:46:52.175Z,994.23
2019-03-08T03:47:52.168Z,994.20
2019-03-08T03:48:52.184Z,994.23
2019-03-08T03:49:52.173Z,994.24
2019-03-08T03:50:52.202Z,994.26
2019-03-08T03:51:52.191Z,994.20
2019-03-08T03:52:52.207Z,994.20
2019-03-08T03:53:52.195Z,994.15
2019-03-08T03:54:52.229Z,994.17
2019-03-08T03:55:52.190Z,994.19
2019-03-08T03:56:53.579Z,994.16
2019-03-08T03:57:52.260Z,994.13
2019-03-08T03:58:52.228Z,994.11
2019-03-08T03:59:52.223Z,994.18
2019-03-08T04:00:52.220Z,994.18
2019-03-08T04:01:52.225Z,994.13
2019-03-08T04:02:52.279Z,994.17
2019-03-08T04:03:52.264Z,994.06
2019-03-08T04:04:52.246Z,994.01
2019-03-08T04:05:52.258Z,994.07
2019-03-08T04:06:52.278Z,994.11
2019-03-08T04:07:52.256Z,994.09
2019-03-08T04:08:52.269Z,994.09
2019-03-08T04:09:52.293Z,994.10
2019-03-08T04:10:52.284Z,994.12
2019-03-08T04:11:52.346Z,994.12
2019-03-08T04:12:52.318Z,994.08
2019-03-08T04:13:52.588Z,994.04
2019-03-08T04:14:52.314Z,994.14
2019-03-08T04:15:52.315Z,993.97
2019-03-08T04:16:52.306Z,994.00
2019-03-08T04:17:52.315Z,994.10
2019-03-08T04:18:52.317Z,994.03
2019-03-08T04:19:52.332Z,994.00
2019-03-08T04:20:52.316Z,993.98
2019-03-08T04:21:52.790Z,994.01
2019-03-08T04:22:52.339Z,993.97
2019-03-08T04:23:52.809Z,993.95
2019-03-08T04:24:52.366Z,993.94
2019-03-08T04:25:52.333Z,993.90
2019-03-08T04:26:52.484Z,993.94
2019-03-08T04:27:52.387Z,993.98
2019-03-08T04:28:52.412Z,994.05
2019-03-08T04:29:52.360Z,994.08
2019-03-08T04:30:52.453Z,993.97
2019-03-08T04:31:52.387Z,994.03
2019-03-08T04:32:52.386Z,993.95
2019-03-08T04:33:52.650Z,993.94
2019-03-08T04:34:52.400Z,993.86
2019-03-08T04:35:52.402Z,993.92
2019-03-08T04:36:52.406Z,993.94
2019-03-08T04:37:52.411Z,993.91
2019-03-08T04:38:52.399Z,993.93
2019-03-08T04:39:52.429Z,993.94
2019-03-08T04:40:52.423Z,993.90
2019-03-08T04:41:52.422Z,993.90
2019-03-08T04:42:52.424Z,993.93
2019-03-08T04:43:52.434Z,993.88
2019-03-08T04:44:52.824Z,993.87
2019-03-08T04:45:52.457Z,993.98
2019-03-08T04:46:52.437Z,993.84
2019-03-08T04:47:52.452Z,993.83
2019-03-08T04:48:52.498Z,993.95
2019-03-08T04:49:52.447Z,993.91
2019-03-08T04:50:52.502Z,993.90
2019-03-08T04:51:52.919Z,993.92
2019-03-08T04:52:52.485Z,993.98
2019-03-08T04:53:52.486Z,993.91
2019-03-08T04:54:52.480Z,993.95
2019-03-08T04:55:52.486Z,993.95
2019-03-08T04:56:53.070Z,993.93
2019-03-08T04:57:52.501Z,994.04
2019-03-08T04:58:52.508Z,994.04
2019-03-08T04:59:52.514Z,993.94
2019-03-08T05:00:52.570Z,993.91
2019-03-08T05:01:52.572Z,993.96
2019-03-08T05:02:52.568Z,993.95
2019-03-08T05:03:52.532Z,993.92
2019-03-08T05:04:52.562Z,993.84
2019-03-08T05:05:52.548Z,993.78
2019-03-08T05:06:52.801Z,993.88
2019-03-08T05:07:52.575Z,993.78
2019-03-08T05:08:53.146Z,993.81
2019-03-08T05:09:52.562Z,993.82
2019-03-08T05:10:53.230Z,993.90
2019-03-08T05:11:52.574Z,993.77
2019-03-08T05:12:52.635Z,993.82
2019-03-08T05:13:52.740Z,993.89
2019-03-08T05:14:52.758Z,993.89
2019-03-08T05:15:52.605Z,993.78
2019-03-08T05:16:52.753Z,993.85
2019-03-08T05:17:52.622Z,993.81
2019-03-08T05:18:52.639Z,993.83
2019-03-08T05:19:52.607Z,993.86
2019-03-08T05:20:52.611Z,993.78
2019-03-08T05:21:52.608Z,993.78
2019-03-08T05:22:52.615Z,993.84
2019-03-08T05:23:53.601Z,993.83
2019-03-08T05:24:52.661Z,993.81
2019-03-08T05:25:52.671Z,993.79
2019-03-08T05:26:53.577Z,993.78
2019-03-08T05:27:52.657Z,993.82
2019-03-08T05:28:52.829Z,993.78
2019-03-08T05:29:53.105Z,993.82
2019-03-08T05:30:52.656Z,993.71
2019-03-08T05:31:52.679Z,993.77
2019-03-08T05:32:53.000Z,993.76
2019-03-08T05:33:52.675Z,993.78
2019-03-08T05:34:52.719Z,993.78
2019-03-08T05:35:52.922Z,993.77
2019-03-08T05:36:52.696Z,993.73
2019-03-08T05:37:52.845Z,993.84
2019-03-08T05:38:53.597Z,993.75
2019-03-08T05:39:52.845Z,993.82
2019-03-08T05:40:52.936Z,993.71
2019-03-08T05:41:52.746Z,993.87
2019-03-08T05:42:52.863Z,993.82
2019-03-08T05:43:52.862Z,993.84
2019-03-08T05:44:53.076Z,993.92
2019-03-08T05:45:53.128Z,993.95
2019-03-08T05:46:52.758Z,993.94
2019-03-08T05:47:52.779Z,993.92
2019-03-08T05:48:52.759Z,993.95
2019-03-08T05:49:52.759Z,993.91
2019-03-08T05:50:53.023Z,993.93
2019-03-08T05:51:52.823Z,993.90
2019-03-08T05:52:53.075Z,993.87
2019-03-08T05:53:53.001Z,993.87
2019-03-08T05:54:53.100Z,993.83
2019-03-08T05:55:53.121Z,993.87
2019-03-08T05:56:52.800Z,994.02
2019-03-08T05:57:52.878Z,994.03
2019-03-08T05:58:52.814Z,993.94
2019-03-08T05:59:52.810Z,994.01
2019-03-08T06:00:52.816Z,994.09
2019-03-08T06:01:52.834Z,994.08
2019-03-08T06:02:52.889Z,994.00
2019-03-08T06:03:52.858Z,993.93
2019-03-08T06:04:52.839Z,994.00
2019-03-08T06:05:52.857Z,994.03
2019-03-08T06:06:52.849Z,994.02
2019-03-08T06:07:52.867Z,994.09
2019-03-08T06:08:52.930Z,994.10
2019-03-08T06:09:52.869Z,994.03
2019-03-08T06:10:53.006Z,994.02
2019-03-08T06:11:52.973Z,994.20
2019-03-08T06:12:52.958Z,994.19
2019-03-08T06:13:52.948Z,994.19
2019-03-08T06:14:52.916Z,994.18
2019-03-08T06:15:52.941Z,994.17
2019-03-08T06:16:52.891Z,994.18
2019-03-08T06:17:52.905Z,994.17
2019-03-08T06:18:52.900Z,994.20
2019-03-08T06:19:52.936Z,994.15
2019-03-08T06:20:52.917Z,994.22
2019-03-08T06:21:52.932Z,994.26
2019-03-08T06:22:52.956Z,994.28
2019-03-08T06:23:52.947Z,994.37
2019-03-08T06:24:53.064Z,994.20
2019-03-08T06:25:52.958Z,994.32
2019-03-08T06:26:52.961Z,994.24
2019-03-08T06:27:52.958Z,994.34
2019-03-08T06:28:52.957Z,994.35
2019-03-08T06:29:52.976Z,993.99
2019-03-08T06:30:53.022Z,994.32
2019-03-08T06:31:52.975Z,994.19
2019-03-08T06:32:53.019Z,994.27
2019-03-08T06:33:52.993Z,994.33
2019-03-08T06:34:53.046Z,994.28
2019-03-08T06:35:53.003Z,994.33
2019-03-08T06:36:53.009Z,994.36
2019-03-08T06:37:53.025Z,994.43
2019-03-08T06:38:53.029Z,994.54
2019-03-08T06:39:53.041Z,994.57
2019-03-08T06:40:53.047Z,994.51
2019-03-08T06:41:53.045Z,994.48
2019-03-08T06:42:53.055Z,994.56
2019-03-08T06:43:53.062Z,994.58
2019-03-08T06:44:53.056Z,994.62
2019-03-08T06:45:53.073Z,994.56
2019-03-08T06:46:53.107Z,994.55
2019-03-08T06:47:53.094Z,994.66
2019-03-08T06:48:53.059Z,994.71
2019-03-08T06:49:53.082Z,994.70
2019-03-08T06:50:53.173Z,994.73
2019-03-08T06:51:53.113Z,994.83
2019-03-08T06:52:53.118Z,994.71
2019-03-08T06:53:53.125Z,994.85
2019-03-08T06:54:53.132Z,994.70
2019-03-08T06:55:53.121Z,994.80
2019-03-08T06:56:53.149Z,994.88
2019-03-08T06:57:53.127Z,994.86
2019-03-08T06:58:53.133Z,995.00
2019-03-08T06:59:53.128Z,994.95
2019-03-08T07:00:53.179Z,995.02
2019-03-08T07:01:53.144Z,995.05
2019-03-08T07:02:53.159Z,994.98
2019-03-08T07:03:53.149Z,995.06
2019-03-08T07:04:53.176Z,995.04
2019-03-08T07:05:53.158Z,995.15
2019-03-08T07:06:53.165Z,995.12
2019-03-08T07:07:53.239Z,995.11
2019-03-08T07:08:53.198Z,995.03
2019-03-08T07:09:53.193Z,995.15
2019-03-08T07:10:53.184Z,995.13
2019-03-08T07:11:53.251Z,995.21
2019-03-08T07:13:02.468Z,995.09
2019-03-08T07:13:53.202Z,995.22
2019-03-08T07:14:53.210Z,995.16
2019-03-08T07:15:53.222Z,995.29
2019-03-08T07:16:53.223Z,995.31
2019-03-08T07:17:53.239Z,995.33
2019-03-08T07:18:53.309Z,995.41
2019-03-08T07:19:53.250Z,995.43
2019-03-08T07:20:53.251Z,995.43
2019-03-08T07:21:53.257Z,995.51
2019-03-08T07:22:53.289Z,995.38
2019-03-08T07:23:53.287Z,995.44
2019-03-08T07:24:53.290Z,995.47
2019-03-08T07:25:54.473Z,995.48
2019-03-08T07:26:53.290Z,995.43
2019-03-08T07:27:53.297Z,995.51
2019-03-08T07:28:53.307Z,995.56
2019-03-08T07:29:53.449Z,995.61
2019-03-08T07:30:57.872Z,995.53
2019-03-08T07:31:53.300Z,995.48
2019-03-08T07:32:53.314Z,995.68
2019-03-08T07:33:53.643Z,995.60
2019-03-08T07:34:53.333Z,995.60
2019-03-08T07:35:53.357Z,995.64
2019-03-08T07:36:53.338Z,995.64
2019-03-08T07:37:53.349Z,995.71
2019-03-08T07:38:53.345Z,995.75
2019-03-08T07:39:53.352Z,995.76
2019-03-08T07:40:53.397Z,995.80
2019-03-08T07:41:53.375Z,995.68
2019-03-08T07:42:53.358Z,995.85
2019-03-08T07:43:53.426Z,995.78
2019-03-08T07:44:53.384Z,995.75
2019-03-08T07:45:53.425Z,995.87
2019-03-08T07:46:53.416Z,995.87
2019-03-08T07:47:53.393Z,995.96
2019-03-08T07:48:53.414Z,995.84
2019-03-08T07:49:53.408Z,995.90
2019-03-08T07:50:53.505Z,995.97
2019-03-08T07:51:53.461Z,995.98
2019-03-08T07:52:53.421Z,995.99
2019-03-08T07:53:53.470Z,996.14
2019-03-08T07:54:53.442Z,995.89
2019-03-08T07:55:53.451Z,996.09
2019-03-08T07:56:53.612Z,996.03
2019-03-08T07:57:53.468Z,996.04
2019-03-08T07:58:53.462Z,996.21
2019-03-08T07:59:54.220Z,995.90
2019-03-08T08:00:53.541Z,996.16
2019-03-08T08:01:53.481Z,996.07
2019-03-08T08:02:53.552Z,996.16
2019-03-08T08:03:53.492Z,996.26
2019-03-08T08:04:53.502Z,996.26
2019-03-08T08:05:57.936Z,996.32
2019-03-08T08:06:53.500Z,996.34
2019-03-08T08:07:53.522Z,996.33
2019-03-08T08:08:53.557Z,996.35
2019-03-08T08:09:53.537Z,996.39
2019-03-08T08:10:53.544Z,996.44
2019-03-08T08:11:53.547Z,996.52
2019-03-08T08:12:53.595Z,996.45
2019-03-08T08:13:53.610Z,996.53
2019-03-08T08:14:53.567Z,996.55
2019-03-08T08:15:53.577Z,996.65
2019-03-08T08:16:53.558Z,996.61
2019-03-08T08:17:53.574Z,996.75
2019-03-08T08:18:53.592Z,996.62
2019-03-08T08:19:53.574Z,996.76
2019-03-08T08:20:53.602Z,996.77
2019-03-08T08:21:53.601Z,996.79
2019-03-08T08:22:53.599Z,996.76
2019-03-08T08:23:53.647Z,996.87
2019-03-08T08:24:53.613Z,996.87
2019-03-08T08:25:53.662Z,996.93
2019-03-08T08:26:53.631Z,996.73
2019-03-08T08:27:53.645Z,996.91
2019-03-08T08:28:53.682Z,997.03
2019-03-08T08:29:53.652Z,997.13
2019-03-08T08:30:53.658Z,997.03
2019-03-08T08:31:53.681Z,997.04
2019-03-08T08:32:53.657Z,997.15
2019-03-08T08:33:53.659Z,997.24
2019-03-08T08:34:53.710Z,997.21
2019-03-08T08:35:53.685Z,997.01
2019-03-08T08:36:53.722Z,997.20
2019-03-08T08:37:53.682Z,997.28
2019-03-08T08:38:53.703Z,997.25
2019-03-08T08:39:53.703Z,997.26
2019-03-08T08:40:53.761Z,997.33
2019-03-08T08:41:53.729Z,997.26
2019-03-08T08:42:53.730Z,997.35
2019-03-08T08:43:53.721Z,997.37
2019-03-08T08:44:53.736Z,997.45
2019-03-08T08:45:53.793Z,997.42
2019-03-08T08:46:53.767Z,997.41
2019-03-08T08:47:53.761Z,997.63
2019-03-08T08:48:53.787Z,997.50
2019-03-08T08:49:54.978Z,997.56
2019-03-08T08:50:53.775Z,997.59
2019-03-08T08:51:53.899Z,997.54
2019-03-08T08:52:53.778Z,997.64
2019-03-08T08:53:54.050Z,997.48
2019-03-08T08:54:53.796Z,997.53
2019-03-08T08:55:53.805Z,997.76
2019-03-08T08:56:53.832Z,997.55
2019-03-08T08:57:53.884Z,997.60
2019-03-08T08:58:53.937Z,997.73
2019-03-08T08:59:53.824Z,997.64
2019-03-08T09:00:53.856Z,997.61
2019-03-08T09:01:53.865Z,997.68
2019-03-08T09:02:53.857Z,997.70
2019-03-08T09:03:53.880Z,997.58
2019-03-08T09:04:53.850Z,997.68
2019-03-08T09:05:53.864Z,997.81
2019-03-08T09:06:53.903Z,997.86
2019-03-08T09:07:53.941Z,997.83
2019-03-08T09:08:54.010Z,997.97
2019-03-08T09:09:53.914Z,997.94
2019-03-08T09:10:53.891Z,998.03
2019-03-08T09:11:54.051Z,998.00
2019-03-08T09:12:53.918Z,998.03
2019-03-08T09:13:54.480Z,997.98
2019-03-08T09:14:53.937Z,998.02
2019-03-08T09:15:53.937Z,998.12
2019-03-08T09:16:53.953Z,998.08
2019-03-08T09:17:53.934Z,998.13
2019-03-08T09:18:53.988Z,998.18
2019-03-08T09:19:54.134Z,998.22
2019-03-08T09:20:53.971Z,998.15
2019-03-08T09:21:54.003Z,998.17
2019-03-08T09:22:53.991Z,998.22
2019-03-08T09:23:54.056Z,998.18
2019-03-08T09:24:54.106Z,998.13
2019-03-08T09:25:54.012Z,998.16
2019-03-08T09:26:54.052Z,998.24
2019-03-08T09:27:54.000Z,998.35
2019-03-08T09:28:54.000Z,998.27
2019-03-08T09:29:54.037Z,998.32
2019-03-08T09:30:54.040Z,998.40
2019-03-08T09:31:54.024Z,998.45
2019-03-08T09:32:59.191Z,998.61
2019-03-08T09:33:54.043Z,998.57
2019-03-08T09:34:54.166Z,998.51
2019-03-08T09:35:54.059Z,998.59
2019-03-08T09:36:54.063Z,998.50
2019-03-08T09:37:54.060Z,998.63
2019-03-08T09:38:54.078Z,998.56
2019-03-08T09:39:54.116Z,998.63
2019-03-08T09:40:54.138Z,998.73
2019-03-08T09:41:54.123Z,998.67
2019-03-08T09:42:54.121Z,998.71
2019-03-08T09:43:54.117Z,998.87
2019-03-08T09:44:54.158Z,998.91
2019-03-08T09:45:54.125Z,998.80
2019-03-08T09:46:54.130Z,998.90
2019-03-08T09:47:54.155Z,998.79
2019-03-08T09:48:54.133Z,998.93
2019-03-08T09:49:54.153Z,998.84
2019-03-08T09:50:54.188Z,998.93
2019-03-08T09:51:54.182Z,999.02
2019-03-08T09:52:54.184Z,999.05
2019-03-08T09:53:54.164Z,998.96
2019-03-08T09:54:54.160Z,998.96
2019-03-08T09:55:54.185Z,999.10
2019-03-08T09:56:54.225Z,999.22
2019-03-08T09:57:54.199Z,999.17
2019-03-08T09:58:54.206Z,999.22
2019-03-08T09:59:54.191Z,999.20
2019-03-08T10:00:54.206Z,999.23
2019-03-08T10:01:54.267Z,999.15
2019-03-08T10:02:54.220Z,999.37
2019-03-08T10:03:54.225Z,999.44
2019-03-08T10:04:54.231Z,999.46
2019-03-08T10:05:54.256Z,999.49
2019-03-08T10:06:54.245Z,999.52
2019-03-08T10:07:54.271Z,999.44
2019-03-08T10:08:56.290Z,999.56
2019-03-08T10:09:54.277Z,999.55
2019-03-08T10:10:54.268Z,999.55
2019-03-08T10:11:54.265Z,999.59
2019-03-08T10:12:54.321Z,999.63
2019-03-08T10:13:54.321Z,999.75
2019-03-08T10:14:54.364Z,999.72
2019-03-08T10:15:54.299Z,999.69
2019-03-08T10:16:54.326Z,999.65
2019-03-08T10:17:54.371Z,999.76
2019-03-08T10:18:54.324Z,999.75
2019-03-08T10:19:54.336Z,999.76
2019-03-08T10:20:54.333Z,999.76
2019-03-08T10:21:54.336Z,999.86
2019-03-08T10:22:54.402Z,999.77
2019-03-08T10:23:54.373Z,999.82
2019-03-08T10:24:54.348Z,999.95
2019-03-08T10:25:54.509Z,999.94
2019-03-08T10:26:54.770Z,999.84
2019-03-08T10:27:54.422Z,999.90
2019-03-08T10:28:54.374Z,999.96
2019-03-08T10:29:54.382Z,1000.00
2019-03-08T10:30:54.390Z,1000.01
2019-03-08T10:31:54.398Z,1000.01
2019-03-08T10:32:54.418Z,1000.00
2019-03-08T10:33:54.427Z,1000.06
2019-03-08T10:34:54.409Z,1000.10
2019-03-08T10:35:54.415Z,1000.12
2019-03-08T10:36:54.424Z,1000.17
2019-03-08T10:37:55.177Z,1000.21
2019-03-08T10:38:54.454Z,1000.18
2019-03-08T10:39:54.441Z,1000.13
2019-03-08T10:40:54.430Z,1000.27
2019-03-08T10:41:54.442Z,1000.35
2019-03-08T10:42:54.446Z,1000.39
2019-03-08T10:43:54.534Z,1000.41
2019-03-08T10:44:54.477Z,1000.47
2019-03-08T10:45:54.466Z,1000.45
2019-03-08T10:46:54.487Z,1000.47
2019-03-08T10:47:56.334Z,1000.32
2019-03-08T10:48:54.571Z,1000.48
2019-03-08T10:49:55.394Z,1000.65
2019-03-08T10:50:54.514Z,1000.46
2019-03-08T10:51:54.557Z,1000.46
2019-03-08T10:52:54.517Z,1000.50
2019-03-08T10:54:00.739Z,1000.44
2019-03-08T10:54:54.567Z,1000.55
2019-03-08T10:55:54.570Z,1000.61
2019-03-08T10:56:54.583Z,1000.61
2019-03-08T10:57:54.571Z,1000.63
2019-03-08T10:58:55.153Z,1000.53
2019-03-08T10:59:54.594Z,1000.71
2019-03-08T11:00:54.585Z,1000.72
2019-03-08T11:01:54.577Z,1000.83
2019-03-08T11:02:54.616Z,1000.79
2019-03-08T11:03:54.590Z,1000.64
2019-03-08T11:04:54.633Z,1000.86
2019-03-08T11:05:54.620Z,1000.90
2019-03-08T11:06:54.610Z,1000.87
2019-03-08T11:07:54.642Z,1001.10
2019-03-08T11:08:54.656Z,1001.28
2019-03-08T11:09:54.627Z,1001.34
2019-03-08T11:10:54.635Z,1001.35
2019-03-08T11:11:54.660Z,1001.54
2019-03-08T11:12:55.199Z,1001.58
2019-03-08T11:13:54.672Z,1001.46
2019-03-08T11:14:54.684Z,1001.59
2019-03-08T11:15:54.711Z,1001.47
2019-03-08T11:16:54.700Z,1001.47
2019-03-08T11:17:54.701Z,1001.45
2019-03-08T11:18:54.704Z,1001.35
2019-03-08T11:19:54.713Z,1001.42
2019-03-08T11:20:54.762Z,1001.46
2019-03-08T11:21:54.739Z,1001.46
2019-03-08T11:22:54.767Z,1001.56
2019-03-08T11:23:54.727Z,1001.55
2019-03-08T11:24:54.746Z,1001.61
2019-03-08T11:25:54.751Z,1001.62
2019-03-08T11:26:55.199Z,1001.62
2019-03-08T11:27:54.763Z,1001.85
2019-03-08T11:28:54.771Z,1001.70
2019-03-08T11:29:54.762Z,1001.71
2019-03-08T11:30:54.781Z,1001.74
2019-03-08T11:31:54.880Z,1001.75
2019-03-08T11:32:54.784Z,1001.80
2019-03-08T11:33:54.784Z,1001.77
2019-03-08T11:34:54.962Z,1001.85
2019-03-08T11:35:54.795Z,1001.90
2019-03-08T11:36:54.816Z,1001.90
2019-03-08T11:37:54.850Z,1002.06
2019-03-08T11:38:54.811Z,1001.97
2019-03-08T11:39:54.819Z,1001.81
2019-03-08T11:40:55.468Z,1001.93
2019-03-08T11:41:54.864Z,1002.02
2019-03-08T11:42:54.835Z,1002.07
2019-03-08T11:43:56.354Z,1002.12
2019-03-08T11:44:54.857Z,1002.12
2019-03-08T11:45:54.853Z,1002.05
2019-03-08T11:46:55.015Z,1002.17
2019-03-08T11:47:54.892Z,1002.10
2019-03-08T11:48:54.865Z,1002.07
2019-03-08T11:49:54.872Z,1002.10
2019-03-08T11:50:54.901Z,1002.20
2019-03-08T11:51:54.883Z,1002.13
2019-03-08T11:52:54.937Z,1002.23
2019-03-08T11:53:56.507Z,1002.22
2019-03-08T11:54:55.080Z,1002.13
2019-03-08T11:55:54.911Z,1002.07
2019-03-08T11:56:56.362Z,1002.10
2019-03-08T11:57:54.944Z,1002.21
2019-03-08T11:58:55.096Z,1002.14
2019-03-08T11:59:54.959Z,1002.14
2019-03-08T12:00:54.956Z,1002.20
2019-03-08T12:01:54.968Z,1002.19
2019-03-08T12:02:54.966Z,1002.15
2019-03-08T12:03:54.968Z,1002.24
2019-03-08T12:04:54.992Z,1002.25
2019-03-08T12:05:54.981Z,1002.27
2019-03-08T12:06:54.998Z,1002.13
2019-03-08T12:07:55.032Z,1002.34
2019-03-08T12:08:55.051Z,1002.17
2019-03-08T12:09:54.994Z,1002.19
2019-03-08T12:10:54.997Z,1002.26
2019-03-08T12:11:55.035Z,1002.23
2019-03-08T12:12:55.014Z,1002.31
2019-03-08T12:13:55.054Z,1002.24
2019-03-08T12:14:55.029Z,1002.29
2019-03-08T12:15:55.070Z,1002.33
2019-03-08T12:16:55.051Z,1002.37
2019-03-08T12:17:55.051Z,1002.33
2019-03-08T12:18:55.057Z,1002.25
2019-03-08T12:19:55.061Z,1002.41
2019-03-08T12:20:55.425Z,1002.45
2019-03-08T12:21:55.102Z,1002.41
2019-03-08T12:22:55.077Z,1002.46
2019-03-08T12:23:55.078Z,1002.45
2019-03-08T12:24:55.092Z,1002.54